Time;durP1;ratioP1;P1;durP2;ratioP2;P2;SDS_P1;SDS_P2;PMS_P1;PMS_P2;Temp;Humidity;BMP_temperature;BMP_pressure;BME280_temperature;BME280_humidity;BME280_pressure;Samples;Min_cycle;Max_cycle;Signal;HPM_P1;HPM_P2
2021/10/17 00:01:49;;;;;;;35.17;22.95;;;8.90;99.90;;;;;;5114289;28;20172;-71
2021/10/17 00:04:17;;;;;;;39.43;25.67;;;8.90;99.90;;;;;;5114287;28;20555;-71
2021/10/17 00:06:47;;;;;;;30.42;20.50;;;8.80;99.90;;;;;;5114659;28;20541;-71
2021/10/17 00:09:13;;;;;;;30.95;20.73;;;8.80;99.90;;;;;;5114181;28;20191;-71
2021/10/17 00:11:41;;;;;;;33.65;21.58;;;8.70;99.90;;;;;;5114145;28;20457;-71
2021/10/17 00:14:08;;;;;;;30.58;21.58;;;8.70;99.90;;;;;;5113850;28;20634;-71
2021/10/17 00:16:41;;;;;;;34.13;21.75;;;8.70;99.90;;;;;;5114590;28;20183;-71
2021/10/17 00:19:09;;;;;;;32.83;22.50;;;8.70;99.90;;;;;;5114010;28;20305;-71
2021/10/17 00:21:36;;;;;;;30.48;20.90;;;8.70;99.90;;;;;;5113956;28;20240;-70
2021/10/17 00:24:07;;;;;;;33.22;22.33;;;8.60;99.90;;;;;;5115110;28;20636;-72
2021/10/17 00:26:38;;;;;;;29.70;20.40;;;8.60;99.90;;;;;;5115163;28;20273;-73
2021/10/17 00:29:04;;;;;;;31.67;20.90;;;8.60;99.90;;;;;;5114057;28;20214;-71
2021/10/17 00:31:35;;;;;;;30.48;21.05;;;8.60;99.90;;;;;;5114036;28;20647;-71
2021/10/17 00:34:07;;;;;;;33.15;22.13;;;8.60;99.90;;;;;;5113592;28;20258;-71
2021/10/17 00:36:34;;;;;;;25.40;19.95;;;8.60;99.90;;;;;;5113086;28;20180;-71
2021/10/17 00:39:01;;;;;;;25.85;18.80;;;8.60;99.90;;;;;;5113648;28;20191;-72
2021/10/17 00:41:31;;;;;;;27.75;19.48;;;8.60;99.90;;;;;;5113761;28;20175;-72
2021/10/17 00:43:58;;;;;;;26.95;18.58;;;8.60;99.90;;;;;;5113982;28;20184;-70
2021/10/17 00:46:24;;;;;;;27.20;19.38;;;8.60;99.90;;;;;;5113569;28;20607;-70
2021/10/17 00:48:53;;;;;;;29.25;19.83;;;8.50;99.90;;;;;;5113469;28;20274;-71
2021/10/17 00:51:22;;;;;;;30.63;18.75;;;8.50;99.90;;;;;;5113593;28;20273;-71
2021/10/17 00:53:50;;;;;;;27.63;19.20;;;8.50;99.90;;;;;;5113628;28;20222;-71
2021/10/17 00:56:31;;;;;;;25.88;18.75;;;8.50;99.90;;;;;;5113238;28;20204;-71
2021/10/17 00:59:04;;;;;;;30.15;18.27;;;8.50;99.90;;;;;;5113486;28;20312;-71
2021/10/17 01:01:32;;;;;;;27.98;18.90;;;8.40;99.90;;;;;;5113258;28;20210;-70
2021/10/17 01:04:04;;;;;;;31.23;18.90;;;8.40;99.90;;;;;;5113508;28;20187;-70
2021/10/17 01:06:30;;;;;;;25.73;17.35;;;8.40;99.90;;;;;;5113367;28;20651;-71
2021/10/17 01:08:57;;;;;;;24.13;17.50;;;8.30;99.90;;;;;;5113064;28;20184;-71
2021/10/17 01:11:23;;;;;;;25.10;17.10;;;8.30;99.90;;;;;;5114488;28;20588;-70
2021/10/17 01:13:55;;;;;;;29.08;18.80;;;8.30;99.90;;;;;;5114268;28;20324;-71
2021/10/17 01:16:23;;;;;;;30.35;18.85;;;8.30;99.90;;;;;;5113206;28;20195;-71
2021/10/17 01:18:53;;;;;;;28.00;19.40;;;8.30;99.90;;;;;;5114547;28;20585;-70
2021/10/17 01:21:25;;;;;;;26.27;18.17;;;8.30;99.90;;;;;;5112874;28;20664;-71
2021/10/17 01:23:52;;;;;;;27.25;17.55;;;8.20;99.90;;;;;;5113184;28;20187;-70
2021/10/17 01:26:20;;;;;;;27.33;18.45;;;8.20;99.90;;;;;;5112864;28;20248;-71
2021/10/17 01:28:52;;;;;;;26.20;17.17;;;8.20;99.90;;;;;;5113076;28;20187;-71
2021/10/17 01:31:20;;;;;;;25.90;16.85;;;8.20;99.90;;;;;;5113224;28;20563;-71
2021/10/17 01:33:47;;;;;;;23.75;17.17;;;8.20;99.90;;;;;;5112452;28;20232;-71
2021/10/17 01:36:16;;;;;;;23.10;16.85;;;8.10;99.90;;;;;;5112861;28;20195;-71
2021/10/17 01:38:42;;;;;;;27.70;17.38;;;8.10;99.90;;;;;;5113281;28;20232;-71
2021/10/17 01:41:13;;;;;;;26.13;17.73;;;8.10;99.90;;;;;;5113722;28;20195;-71
2021/10/17 01:43:40;;;;;;;26.63;16.63;;;8.10;99.90;;;;;;5113372;28;20184;-71
2021/10/17 01:46:07;;;;;;;27.83;17.80;;;8.10;99.90;;;;;;5113246;28;20747;-71
2021/10/17 01:48:33;;;;;;;25.58;15.68;;;8.10;99.90;;;;;;5116880;28;20184;-70
2021/10/17 01:50:59;;;;;;;27.38;17.27;;;8.10;99.90;;;;;;5116696;28;20196;-72
2021/10/17 01:53:33;;;;;;;22.93;16.77;;;8.00;99.90;;;;;;5117031;28;20188;-71
2021/10/17 01:56:06;;;;;;;23.63;15.55;;;8.00;99.90;;;;;;5116769;28;20466;-72
2021/10/17 01:58:33;;;;;;;22.25;15.55;;;8.00;99.90;;;;;;5117028;28;20182;-71
2021/10/17 02:01:01;;;;;;;26.98;15.95;;;8.00;99.90;;;;;;5116622;28;20560;-72
2021/10/17 02:03:28;;;;;;;23.67;15.57;;;7.90;99.90;;;;;;5117029;28;20656;-71
2021/10/17 02:05:56;;;;;;;21.83;16.73;;;7.90;99.90;;;;;;5116755;28;20268;-72
2021/10/17 02:08:21;;;;;;;21.05;16.33;;;7.80;99.90;;;;;;5116490;28;20184;-71
2021/10/17 02:10:49;;;;;;;23.07;15.87;;;7.80;99.90;;;;;;5116714;28;20675;-71
2021/10/17 02:13:15;;;;;;;26.42;15.38;;;7.80;99.90;;;;;;5116089;28;20472;-70
2021/10/17 02:15:41;;;;;;;25.17;14.45;;;7.80;99.90;;;;;;5116200;28;20222;-70
2021/10/17 02:18:07;;;;;;;27.30;16.30;;;7.80;99.90;;;;;;5116561;28;20580;-71
2021/10/17 02:20:38;;;;;;;23.73;14.73;;;7.80;99.90;;;;;;5116374;28;20403;-71
2021/10/17 02:23:05;;;;;;;32.47;16.55;;;7.70;99.90;;;;;;5116515;28;20402;-72
2021/10/17 02:25:33;;;;;;;21.70;14.95;;;7.70;99.90;;;;;;5116429;28;20669;-71
2021/10/17 02:27:59;;;;;;;21.27;15.60;;;7.70;99.90;;;;;;5117706;28;20180;-71
2021/10/17 02:30:29;;;;;;;22.63;15.30;;;7.60;99.90;;;;;;5116150;28;20188;-70
2021/10/17 02:32:56;;;;;;;23.48;15.95;;;7.60;99.90;;;;;;5116187;28;20179;-70
2021/10/17 02:35:24;;;;;;;24.17;16.60;;;7.50;99.90;;;;;;5116246;28;20261;-71
2021/10/17 02:37:50;;;;;;;28.23;14.40;;;7.50;99.90;;;;;;5116166;28;20184;-70
2021/10/17 02:40:16;;;;;;;24.57;15.50;;;7.60;99.90;;;;;;5116242;28;20203;-71
2021/10/17 02:42:44;;;;;;;20.77;14.47;;;7.50;99.90;;;;;;5115810;28;20493;-71
2021/10/17 02:45:15;;;;;;;23.80;15.40;;;7.50;99.90;;;;;;5115715;28;20443;-71
2021/10/17 02:47:43;;;;;;;18.17;13.45;;;7.50;99.90;;;;;;5117769;28;20668;-70
2021/10/17 02:50:10;;;;;;;21.25;14.48;;;7.50;99.90;;;;;;5116393;28;20188;-71
2021/10/17 02:52:36;;;;;;;19.20;13.07;;;7.50;99.90;;;;;;5116380;28;20184;-70
2021/10/17 02:55:03;;;;;;;24.27;15.20;;;7.40;99.90;;;;;;5115748;28;20211;-71
2021/10/17 02:57:30;;;;;;;22.02;12.98;;;7.40;99.90;;;;;;5115617;28;20572;-71
2021/10/17 02:59:56;;;;;;;29.65;14.80;;;7.40;99.90;;;;;;5114950;28;20191;-71
2021/10/17 03:02:22;;;;;;;21.55;15.00;;;7.40;99.90;;;;;;5115871;28;20187;-71
2021/10/17 03:04:49;;;;;;;16.90;12.67;;;7.40;99.90;;;;;;5115508;28;20659;-70
2021/10/17 03:07:19;;;;;;;16.05;13.02;;;7.40;99.90;;;;;;5115689;28;20628;-71
2021/10/17 03:09:49;;;;;;;20.20;13.88;;;7.30;99.90;;;;;;5115648;28;20202;-71
2021/10/17 03:12:15;;;;;;;19.40;13.43;;;7.30;99.90;;;;;;5115354;28;20199;-71
2021/10/17 03:14:41;;;;;;;20.48;14.05;;;7.30;99.90;;;;;;5115613;28;20603;-70
2021/10/17 03:17:11;;;;;;;19.90;13.07;;;7.30;99.90;;;;;;5115239;28;20180;-70
2021/10/17 03:19:39;;;;;;;16.80;13.30;;;7.30;99.90;;;;;;5115007;28;20252;-71
2021/10/17 03:22:06;;;;;;;22.60;14.55;;;7.30;99.90;;;;;;5115073;28;20819;-71
2021/10/17 03:24:33;;;;;;;21.77;15.32;;;7.20;99.90;;;;;;5116259;28;20204;-71
2021/10/17 03:27:00;;;;;;;20.42;14.55;;;7.20;99.90;;;;;;5115255;28;20728;-71
2021/10/17 03:29:30;;;;;;;22.60;13.98;;;7.20;99.90;;;;;;5115289;28;20196;-71
2021/10/17 03:31:58;;;;;;;24.38;14.48;;;7.20;99.90;;;;;;5114775;28;20207;-70
2021/10/17 03:34:25;;;;;;;27.08;16.38;;;7.20;99.90;;;;;;5114860;28;20659;-71
2021/10/17 03:36:53;;;;;;;30.73;16.52;;;7.20;99.90;;;;;;5114691;28;20176;-70
2021/10/17 03:39:19;;;;;;;28.20;15.97;;;7.10;99.90;;;;;;5115015;28;20183;-70
2021/10/17 03:41:45;;;;;;;24.75;18.40;;;7.10;99.90;;;;;;5114777;28;20535;-70
2021/10/17 03:44:10;;;;;;;21.60;14.77;;;7.10;99.90;;;;;;5114534;28;20183;-71
2021/10/17 03:46:41;;;;;;;26.52;14.88;;;7.10;99.90;;;;;;5114652;28;20430;-72
2021/10/17 03:49:09;;;;;;;18.92;14.25;;;7.10;99.90;;;;;;5114556;28;20180;-72
2021/10/17 03:51:39;;;;;;;20.55;13.77;;;7.10;99.90;;;;;;5114663;28;20540;-70
2021/10/17 03:54:05;;;;;;;20.00;14.45;;;7.00;99.90;;;;;;5114691;28;20219;-72
2021/10/17 03:56:32;;;;;;;16.00;12.32;;;7.00;99.90;;;;;;5114496;28;20176;-71
2021/10/17 03:59:01;;;;;;;19.63;13.40;;;7.00;99.90;;;;;;5114596;28;20541;-71
2021/10/17 04:01:30;;;;;;;19.00;12.80;;;7.00;99.90;;;;;;5114679;28;20186;-70
2021/10/17 04:03:57;;;;;;;19.33;13.13;;;7.00;99.90;;;;;;5114562;28;20176;-71
2021/10/17 04:06:24;;;;;;;21.05;13.35;;;6.90;99.90;;;;;;5114451;28;20199;-70
2021/10/17 04:08:50;;;;;;;20.58;13.27;;;6.90;99.90;;;;;;5114315;28;20719;-71
2021/10/17 04:11:20;;;;;;;17.90;12.75;;;7.00;99.90;;;;;;5114110;28;20691;-71
2021/10/17 04:13:52;;;;;;;17.88;12.65;;;7.00;99.90;;;;;;5113873;28;20239;-71
2021/10/17 04:16:20;;;;;;;22.10;13.38;;;7.00;99.90;;;;;;5114526;28;20560;-69
2021/10/17 04:18:49;;;;;;;19.33;13.73;;;7.00;99.90;;;;;;5114153;28;20195;-71
2021/10/17 04:21:16;;;;;;;24.90;13.70;;;7.00;99.90;;;;;;5114395;28;20764;-70
2021/10/17 04:23:43;;;;;;;16.42;11.90;;;6.90;99.90;;;;;;5114258;28;20184;-70
2021/10/17 04:26:14;;;;;;;19.48;13.40;;;6.90;99.90;;;;;;5114639;28;20192;-71
2021/10/17 04:28:42;;;;;;;20.30;12.82;;;6.90;99.90;;;;;;5113829;28;20644;-71
2021/10/17 04:31:10;;;;;;;18.50;12.40;;;6.80;99.90;;;;;;5113671;28;20198;-70
2021/10/17 04:33:36;;;;;;;20.55;12.80;;;6.80;99.90;;;;;;5113962;28;20427;-71
2021/10/17 04:36:02;;;;;;;24.63;14.27;;;6.80;99.90;;;;;;5114170;28;20699;-71
2021/10/17 04:38:32;;;;;;;21.75;13.45;;;6.70;99.90;;;;;;5113477;28;20611;-71
2021/10/17 04:41:11;;;;;;;22.02;13.80;;;6.70;99.90;;;;;;5113564;28;20199;-71
2021/10/17 04:43:37;;;;;;;19.55;13.93;;;6.80;99.90;;;;;;5113607;28;20194;-71
2021/10/17 04:46:08;;;;;;;21.40;13.52;;;6.80;99.90;;;;;;5113662;28;20196;-71
2021/10/17 04:48:39;;;;;;;23.23;14.35;;;6.80;99.90;;;;;;5114027;28;20184;-71
2021/10/17 04:51:06;;;;;;;20.92;14.10;;;6.80;99.90;;;;;;5113479;28;20751;-71
2021/10/17 04:53:32;;;;;;;21.20;14.20;;;6.90;99.90;;;;;;5113560;28;20186;-70
2021/10/17 04:55:59;;;;;;;20.70;13.07;;;6.90;99.90;;;;;;5113254;28;20216;-71
2021/10/17 04:58:28;;;;;;;20.85;13.88;;;6.90;99.90;;;;;;5113455;28;20188;-71
2021/10/17 05:00:55;;;;;;;18.25;12.30;;;6.90;99.90;;;;;;5113161;28;20191;-71
2021/10/17 05:03:26;;;;;;;23.13;14.98;;;7.00;99.90;;;;;;5113322;28;20214;-71
2021/10/17 05:05:52;;;;;;;19.90;13.15;;;7.00;99.90;;;;;;5114466;28;20188;-71
2021/10/17 05:08:18;;;;;;;23.73;13.80;;;7.00;99.90;;;;;;5113330;28;20183;-71
2021/10/17 05:10:46;;;;;;;25.25;15.43;;;7.10;99.90;;;;;;5113331;28;20664;-71
2021/10/17 05:13:17;;;;;;;24.83;15.80;;;7.10;99.90;;;;;;5112966;28;20234;-71
2021/10/17 05:15:47;;;;;;;23.77;16.23;;;7.20;99.90;;;;;;5112902;28;20834;-70
2021/10/17 05:18:13;;;;;;;25.95;15.77;;;7.20;99.90;;;;;;5112849;28;20180;-70
2021/10/17 05:20:40;;;;;;;22.57;14.73;;;7.20;99.90;;;;;;5112855;28;20199;-71
2021/10/17 05:23:11;;;;;;;24.08;15.27;;;7.20;99.90;;;;;;5112960;28;20506;-71
2021/10/17 05:25:39;;;;;;;23.25;14.10;;;7.30;99.90;;;;;;5113303;28;20203;-73
2021/10/17 05:28:07;;;;;;;22.20;14.35;;;7.30;99.90;;;;;;5113181;28;20672;-72
2021/10/17 05:30:34;;;;;;;19.50;15.25;;;7.30;99.90;;;;;;5112939;28;20196;-71
2021/10/17 05:33:02;;;;;;;21.73;14.00;;;7.30;99.90;;;;;;5113108;28;20342;-71
2021/10/17 05:35:29;;;;;;;21.85;14.50;;;7.30;99.90;;;;;;5112818;28;20710;-71
2021/10/17 05:37:56;;;;;;;20.80;15.32;;;7.30;99.90;;;;;;5113015;28;20179;-70
2021/10/17 05:40:22;;;;;;;21.10;15.82;;;7.40;99.90;;;;;;5112841;28;20195;-70
2021/10/17 05:42:52;;;;;;;23.52;14.85;;;7.40;99.90;;;;;;5114128;28;20675;-71
2021/10/17 05:45:18;;;;;;;19.80;14.32;;;7.40;99.90;;;;;;5112699;28;20635;-71
2021/10/17 05:47:45;;;;;;;29.03;16.47;;;7.50;99.90;;;;;;5114381;28;20204;-71
2021/10/17 05:50:11;;;;;;;21.90;15.23;;;7.50;99.90;;;;;;5113052;28;20432;-71
2021/10/17 05:52:38;;;;;;;21.73;14.97;;;7.50;99.90;;;;;;5112712;28;20588;-71
2021/10/17 05:55:05;;;;;;;22.52;14.35;;;7.60;99.90;;;;;;5112824;28;20266;-71
2021/10/17 05:57:32;;;;;;;19.88;13.23;;;7.60;99.90;;;;;;5112498;28;20641;-71
2021/10/17 05:59:58;;;;;;;15.88;12.43;;;7.60;99.90;;;;;;5112599;28;20282;-71
2021/10/17 06:02:24;;;;;;;19.65;13.90;;;7.70;99.90;;;;;;5112438;28;20548;-70
2021/10/17 06:04:58;;;;;;;25.45;16.27;;;7.70;99.90;;;;;;5112529;28;20683;-71
2021/10/17 06:07:25;;;;;;;25.35;18.15;;;7.70;99.90;;;;;;5113056;28;20602;-70
2021/10/17 06:09:52;;;;;;;28.98;19.15;;;7.80;99.90;;;;;;5112489;28;20682;-71
2021/10/17 06:12:22;;;;;;;24.27;18.33;;;7.80;99.90;;;;;;5112460;28;20320;-70
2021/10/17 06:14:49;;;;;;;26.85;18.30;;;7.80;99.90;;;;;;5112494;28;20310;-71
2021/10/17 06:17:16;;;;;;;21.77;16.45;;;7.90;99.90;;;;;;5112574;28;20189;-70
2021/10/17 06:19:41;;;;;;;21.92;15.05;;;7.90;99.90;;;;;;5112447;28;20191;-70
2021/10/17 06:22:11;;;;;;;21.03;13.40;;;8.00;99.90;;;;;;5112322;28;20667;-71
2021/10/17 06:24:39;;;;;;;20.08;14.82;;;8.00;99.90;;;;;;5112603;28;20472;-71
2021/10/17 06:27:07;;;;;;;18.60;12.82;;;8.10;99.90;;;;;;5113664;28;20182;-71
2021/10/17 06:29:33;;;;;;;20.98;14.18;;;8.20;99.90;;;;;;5112225;28;20201;-71
2021/10/17 06:32:01;;;;;;;19.90;12.70;;;8.30;99.90;;;;;;5112259;28;20182;-71
2021/10/17 06:34:27;;;;;;;19.00;12.40;;;8.30;99.90;;;;;;5114676;28;20716;-71
2021/10/17 06:36:54;;;;;;;22.67;14.60;;;8.40;99.90;;;;;;5115927;28;20259;-70
2021/10/17 06:39:22;;;;;;;18.90;13.20;;;8.50;99.90;;;;;;5112815;28;20454;-72
2021/10/17 06:41:51;;;;;;;18.05;13.13;;;8.60;99.90;;;;;;5094219;28;20294;-71
2021/10/17 06:44:19;;;;;;;16.58;12.02;;;8.80;99.90;;;;;;5093577;28;20184;-72
2021/10/17 06:46:49;;;;;;;16.45;11.52;;;8.90;99.90;;;;;;5093267;28;20656;-71
2021/10/17 06:49:15;;;;;;;16.88;12.40;;;9.00;99.90;;;;;;5093387;28;20191;-72
2021/10/17 06:51:44;;;;;;;16.00;11.77;;;9.10;99.90;;;;;;5093395;28;20899;-72
2021/10/17 06:54:11;;;;;;;19.67;11.68;;;9.20;99.90;;;;;;5095325;28;20212;-71
2021/10/17 06:56:41;;;;;;;16.20;11.00;;;9.30;99.90;;;;;;5093860;28;20169;-72
2021/10/17 06:59:07;;;;;;;17.73;11.25;;;9.50;99.90;;;;;;5095580;28;20220;-71
2021/10/17 07:01:39;;;;;;;15.38;9.98;;;9.60;99.90;;;;;;5095214;28;20173;-72
2021/10/17 07:04:08;;;;;;;15.10;9.80;;;9.70;99.90;;;;;;5095042;28;20185;-71
2021/10/17 07:06:34;;;;;;;15.02;11.20;;;9.90;99.90;;;;;;5095474;28;20173;-70
2021/10/17 07:09:11;;;;;;;21.75;8.70;;;10.00;99.90;;;;;;5094943;28;20542;-71
2021/10/17 07:11:39;;;;;;;19.30;10.07;;;10.10;99.90;;;;;;5094991;28;20165;-72
2021/10/17 07:14:08;;;;;;;14.43;10.07;;;10.30;99.90;;;;;;5095809;28;20240;-72
2021/10/17 07:16:33;;;;;;;14.05;10.15;;;10.40;99.90;;;;;;5094920;28;20184;-72
2021/10/17 07:19:03;;;;;;;12.05;9.27;;;10.60;99.90;;;;;;5094944;28;20185;-72
2021/10/17 07:21:31;;;;;;;14.63;9.55;;;10.80;99.90;;;;;;5095373;28;20222;-71
2021/10/17 07:23:57;;;;;;;12.93;8.70;;;11.00;99.90;;;;;;5094909;28;20206;-72
2021/10/17 07:26:24;;;;;;;12.10;8.10;;;11.20;99.90;;;;;;5094660;28;20242;-71
2021/10/17 07:28:50;;;;;;;11.77;8.38;;;11.40;99.90;;;;;;5094559;28;21043;-72
2021/10/17 07:31:20;;;;;;;14.40;8.32;;;11.60;99.90;;;;;;5095954;28;20207;-72
2021/10/17 07:33:46;;;;;;;10.90;7.00;;;11.80;99.90;;;;;;5095791;28;20267;-72
2021/10/17 07:36:13;;;;;;;10.63;7.03;;;12.10;99.90;;;;;;5094565;28;20288;-72
2021/10/17 07:38:44;;;;;;;9.95;7.30;;;12.30;99.90;;;;;;5094695;28;20192;-72
2021/10/17 07:41:12;;;;;;;9.05;7.35;;;12.60;99.90;;;;;;5094406;28;20227;-72
2021/10/17 07:43:42;;;;;;;9.37;7.30;;;13.00;99.90;;;;;;5094552;28;20184;-72
2021/10/17 07:46:08;;;;;;;10.70;7.57;;;13.50;99.90;;;;;;5094244;28;20452;-72
2021/10/17 07:48:38;;;;;;;10.90;7.10;;;14.10;99.90;;;;;;5094777;28;20482;-72
2021/10/17 07:51:05;;;;;;;9.70;6.40;;;14.90;99.90;;;;;;5094534;28;20432;-72
2021/10/17 07:53:32;;;;;;;10.50;6.27;;;15.70;99.90;;;;;;5094351;28;20523;-72
2021/10/17 07:56:03;;;;;;;7.73;6.80;;;16.50;99.90;;;;;;5093955;28;20551;-72
2021/10/17 07:58:40;;;;;;;7.87;6.53;;;17.40;99.90;;;;;;5094268;28;20440;-73
2021/10/17 08:01:11;;;;;;;7.30;5.47;;;18.30;99.90;;;;;;5094277;28;21008;-72
2021/10/17 08:03:49;;;;;;;8.67;5.27;;;19.10;99.90;;;;;;5094070;28;20528;-72
2021/10/17 08:06:15;;;;;;;8.70;5.47;;;19.80;99.90;;;;;;5093894;28;20440;-73
2021/10/17 08:08:44;;;;;;;9.20;5.87;;;20.50;99.90;;;;;;5095682;28;20413;-73
2021/10/17 08:11:13;;;;;;;9.30;5.40;;;21.10;99.40;;;;;;5094124;28;20436;-73
2021/10/17 08:13:43;;;;;;;8.73;6.07;;;21.60;97.60;;;;;;5093621;28;20490;-73
2021/10/17 08:16:16;;;;;;;7.60;5.40;;;22.10;96.00;;;;;;5093828;28;20807;-73
2021/10/17 08:18:43;;;;;;;6.50;5.37;;;22.50;94.20;;;;;;5093939;28;20439;-73
2021/10/17 08:21:15;;;;;;;7.00;5.20;;;22.90;93.00;;;;;;5093632;28;20462;-74
2021/10/17 08:23:41;;;;;;;7.67;6.30;;;23.20;92.30;;;;;;5093979;28;21015;-73
2021/10/17 08:26:07;;;;;;;8.37;5.00;;;23.70;91.10;;;;;;5095079;28;20947;-72
2021/10/17 08:28:35;;;;;;;5.00;4.50;;;24.10;89.10;;;;;;5093885;28;20431;-73
2021/10/17 08:31:20;;;;;;;6.17;5.20;;;24.30;88.50;;;;;;5093356;28;20204;-73
2021/10/17 08:33:50;;;;;;;5.70;4.67;;;24.60;87.20;;;;;;5093512;28;20436;-73
2021/10/17 08:36:21;;;;;;;7.27;5.03;;;24.70;84.00;;;;;;5093939;28;20440;-73
2021/10/17 08:38:48;;;;;;;7.27;6.20;;;24.70;82.30;;;;;;5093663;28;20780;-72
2021/10/17 08:41:15;;;;;;;6.47;5.03;;;24.60;81.70;;;;;;5093268;28;20506;-73
2021/10/17 08:43:42;;;;;;;10.40;5.47;;;24.30;80.30;;;;;;5093236;28;20432;-73
2021/10/17 08:46:11;;;;;;;8.47;5.70;;;23.70;81.00;;;;;;5093137;28;20490;-73
2021/10/17 08:48:40;;;;;;;8.23;5.57;;;23.20;82.20;;;;;;5093616;28;20482;-73
2021/10/17 08:51:07;;;;;;;6.53;5.33;;;22.70;83.20;;;;;;5093030;28;20444;-72
2021/10/17 08:53:37;;;;;;;7.13;5.33;;;22.20;83.30;;;;;;5093010;28;20428;-73
2021/10/17 08:56:07;;;;;;;7.03;4.80;;;21.70;84.40;;;;;;5092344;28;20519;-73
2021/10/17 08:58:33;;;;;;;6.40;4.93;;;21.30;84.90;;;;;;5093038;28;20430;-73
2021/10/17 09:01:18;;;;;;;8.10;5.57;;;21.10;85.60;;;;;;5092851;28;20452;-73
2021/10/17 09:03:55;;;;;;;5.40;4.63;;;21.10;86.10;;;;;;5094646;28;20440;-73
2021/10/17 09:06:35;;;;;;;9.20;5.73;;;20.90;86.70;;;;;;5092899;28;20433;-73
2021/10/17 09:09:10;;;;;;;8.87;5.70;;;20.60;86.60;;;;;;5093211;28;20446;-72
2021/10/17 09:11:45;;;;;;;11.90;6.43;;;20.30;87.10;;;;;;5092865;28;20850;-73
2021/10/17 09:14:23;;;;;;;6.77;5.87;;;19.80;87.60;;;;;;5092225;28;21016;-73
2021/10/17 09:16:54;;;;;;;12.90;5.90;;;19.30;89.40;;;;;;5093027;28;20976;-71
2021/10/17 09:19:31;;;;;;;7.20;5.20;;;19.00;90.00;;;;;;5092966;28;20472;-73
2021/10/17 09:21:59;;;;;;;5.87;5.30;;;18.70;90.30;;;;;;5092696;28;20428;-72
2021/10/17 09:24:30;;;;;;;9.20;6.27;;;18.40;91.00;;;;;;5092586;28;20535;-73
2021/10/17 09:27:12;;;;;;;6.30;5.40;;;18.10;90.90;;;;;;5092185;28;20425;-73
2021/10/17 09:29:40;;;;;;;9.43;5.93;;;18.00;92.00;;;;;;5091991;28;20456;-73
2021/10/17 09:32:29;;;;;;;7.57;5.10;;;17.80;92.20;;;;;;5092499;28;20882;-72
2021/10/17 09:35:01;;;;;;;7.03;5.47;;;17.70;92.50;;;;;;5092441;28;20519;-72
2021/10/17 09:37:31;;;;;;;8.63;5.23;;;17.60;92.30;;;;;;5092412;28;20511;-72
2021/10/17 09:40:05;;;;;;;8.80;5.53;;;17.60;92.30;;;;;;5092478;28;20464;-73
2021/10/17 09:42:42;;;;;;;6.47;4.97;;;17.60;92.90;;;;;;5092702;28;20428;-72
2021/10/17 09:45:46;;;;;;;7.20;5.03;;;17.60;93.10;;;;;;5092307;28;20451;-73
2021/10/17 09:48:29;;;;;;;8.37;5.00;;;17.50;93.20;;;;;;5054516;28;20440;-73
2021/10/17 09:51:19;;;;;;;6.63;5.40;;;17.50;93.90;;;;;;5089345;28;20455;-72
2021/10/17 09:53:45;;;;;;;8.20;4.93;;;17.40;93.20;;;;;;5092817;28;20432;-73
2021/10/17 09:56:39;;;;;;;5.83;5.07;;;17.30;92.80;;;;;;5092244;28;20549;-73
2021/10/17 09:59:12;;;;;;;8.97;5.90;;;17.20;93.30;;;;;;5092251;28;20420;-73
2021/10/17 10:01:41;;;;;;;6.90;5.00;;;17.20;93.80;;;;;;5092321;28;20432;-72
2021/10/17 10:04:15;;;;;;;9.37;5.50;;;17.20;93.90;;;;;;5092210;28;20416;-73
2021/10/17 10:06:41;;;;;;;10.50;6.20;;;17.10;94.20;;;;;;5092089;28;20417;-72
2021/10/17 10:09:10;;;;;;;8.30;5.37;;;17.10;94.00;;;;;;5095452;28;20514;-73
2021/10/17 10:11:38;;;;;;;5.40;4.90;;;17.10;94.20;;;;;;5095116;28;20421;-72
2021/10/17 10:14:13;;;;;;;9.37;6.27;;;17.10;94.20;;;;;;5095763;28;20476;-72
2021/10/17 10:16:39;;;;;;;8.83;6.13;;;17.10;94.70;;;;;;5096133;28;20416;-72
2021/10/17 10:19:15;;;;;;;7.03;5.03;;;17.10;94.50;;;;;;5097655;28;20471;-72
2021/10/17 10:21:42;;;;;;;7.60;5.57;;;17.10;94.40;;;;;;5095987;28;20432;-72
2021/10/17 10:24:11;;;;;;;10.23;6.30;;;17.10;94.50;;;;;;5096130;28;20425;-73
2021/10/17 10:26:39;;;;;;;6.37;5.73;;;17.10;94.60;;;;;;5095841;28;20395;-72
2021/10/17 10:29:07;;;;;;;7.70;5.60;;;17.10;94.50;;;;;;5094805;28;20441;-73
2021/10/17 10:31:53;;;;;;;7.67;5.70;;;17.10;94.50;;;;;;5076964;28;20964;-71
2021/10/17 10:34:25;;;;;;;6.40;4.87;;;17.20;95.20;;;;;;5093892;28;20552;-73
2021/10/17 10:36:57;;;;;;;9.00;6.20;;;17.20;95.00;;;;;;5093745;28;20425;-73
2021/10/17 10:39:33;;;;;;;6.50;5.80;;;17.20;94.90;;;;;;5095609;28;20436;-72
2021/10/17 10:42:13;;;;;;;8.43;5.53;;;17.20;94.40;;;;;;5114444;28;20388;-73
2021/10/17 10:44:43;;;;;;;7.93;5.33;;;17.20;94.10;;;;;;5114012;28;20846;-73
2021/10/17 10:47:31;;;;;;;7.67;5.67;;;17.20;94.10;;;;;;5114510;28;20412;-71
2021/10/17 10:49:59;;;;;;;6.57;5.37;;;17.10;94.50;;;;;;5115911;28;20444;-72
2021/10/17 10:52:24;;;;;;;6.33;4.63;;;17.10;94.10;;;;;;5116411;28;20420;-73
2021/10/17 10:55:01;;;;;;;7.50;5.33;;;17.00;93.60;;;;;;5115742;28;21049;-73
2021/10/17 10:57:40;;;;;;;7.00;4.77;;;17.00;93.70;;;;;;5115823;28;20192;-72
2021/10/17 11:00:12;;;;;;;6.33;5.20;;;17.10;93.70;;;;;;5117173;28;20436;-73
2021/10/17 11:03:14;;;;;;;6.47;4.70;;;17.10;94.10;;;;;;5116353;28;20466;-74
2021/10/17 11:05:40;;;;;;;5.90;4.47;;;17.10;94.20;;;;;;5115585;28;20442;-73
2021/10/17 11:08:14;;;;;;;7.67;4.50;;;17.10;94.20;;;;;;5115596;28;20438;-74
2021/10/17 11:10:45;;;;;;;7.30;5.60;;;17.20;94.30;;;;;;5115492;28;20443;-72
2021/10/17 11:13:26;;;;;;;9.90;5.60;;;17.20;94.60;;;;;;5115190;28;20472;-73
2021/10/17 11:15:52;;;;;;;7.20;6.10;;;17.30;94.80;;;;;;5116748;28;20467;-73
2021/10/17 11:18:27;;;;;;;6.10;4.87;;;17.30;94.90;;;;;;5115352;28;20429;-73
2021/10/17 11:20:53;;;;;;;6.07;5.47;;;17.30;94.40;;;;;;5114713;28;20563;-73
2021/10/17 11:23:21;;;;;;;8.23;5.40;;;17.30;94.50;;;;;;5115337;28;20432;-73
2021/10/17 11:26:07;;;;;;;6.73;4.70;;;17.30;95.00;;;;;;5114918;28;20436;-73
2021/10/17 11:28:37;;;;;;;9.60;5.90;;;17.30;95.10;;;;;;5116384;28;21021;-73
2021/10/17 11:31:11;;;;;;;7.03;5.20;;;17.30;95.20;;;;;;5114952;28;20459;-74
2021/10/17 11:33:45;;;;;;;12.00;5.63;;;17.40;95.10;;;;;;5115336;28;20912;-73
2021/10/17 11:36:13;;;;;;;7.20;5.43;;;17.40;95.40;;;;;;5114603;28;20980;-73
2021/10/17 11:38:40;;;;;;;5.70;4.63;;;17.40;94.90;;;;;;5114805;28;20412;-73
2021/10/17 11:41:11;;;;;;;5.90;5.10;;;17.40;94.80;;;;;;5114739;28;20987;-73
2021/10/17 11:43:43;;;;;;;6.27;5.60;;;17.50;95.00;;;;;;5115346;28;20466;-73
2021/10/17 11:46:13;;;;;;;6.60;5.73;;;17.50;94.70;;;;;;5114426;28;20535;-73
2021/10/17 11:48:50;;;;;;;10.97;6.87;;;17.50;95.50;;;;;;5114613;28;20424;-73
2021/10/17 11:51:17;;;;;;;6.63;5.30;;;17.50;95.60;;;;;;5114638;28;20478;-73
2021/10/17 11:53:43;;;;;;;5.50;5.00;;;17.50;95.40;;;;;;5116446;28;20440;-73
2021/10/17 11:56:21;;;;;;;8.80;5.97;;;17.50;95.30;;;;;;5114428;28;20512;-73
2021/10/17 11:58:55;;;;;;;7.50;5.97;;;17.50;95.10;;;;;;5114306;28;20542;-73
2021/10/17 12:01:23;;;;;;;8.43;5.77;;;17.60;95.10;;;;;;5114365;28;20876;-73
2021/10/17 12:03:54;;;;;;;7.30;5.40;;;17.60;95.20;;;;;;5114559;28;20464;-73
2021/10/17 12:06:21;;;;;;;6.73;5.47;;;17.60;95.20;;;;;;5114495;28;20445;-73
2021/10/17 12:09:02;;;;;;;6.83;5.00;;;17.60;95.00;;;;;;5113962;28;20928;-73
2021/10/17 12:11:29;;;;;;;7.03;5.57;;;17.60;95.20;;;;;;5114361;28;20875;-72
2021/10/17 12:13:59;;;;;;;7.53;5.70;;;17.60;95.10;;;;;;5114140;28;20968;-72
2021/10/17 12:16:29;;;;;;;7.20;5.77;;;17.60;95.30;;;;;;5114135;28;20435;-73
2021/10/17 12:19:05;;;;;;;6.57;5.30;;;17.70;95.00;;;;;;5113846;28;20475;-73
2021/10/17 12:21:46;;;;;;;7.43;5.10;;;17.70;95.00;;;;;;5114024;28;20969;-73
2021/10/17 12:24:12;;;;;;;6.40;5.03;;;17.70;95.20;;;;;;5115771;28;20919;-72
2021/10/17 12:26:51;;;;;;;5.90;5.30;;;17.70;95.30;;;;;;5114374;28;20436;-72
2021/10/17 12:29:29;;;;;;;6.40;4.90;;;17.70;95.30;;;;;;5115262;28;20415;-74
2021/10/17 12:31:58;;;;;;;6.30;5.60;;;17.70;95.40;;;;;;5112797;28;20420;-73
2021/10/17 12:34:38;;;;;;;8.60;6.80;;;17.70;95.70;;;;;;5113896;28;20846;-73
2021/10/17 12:37:06;;;;;;;9.80;6.50;;;17.80;95.30;;;;;;5113643;28;20412;-74
2021/10/17 12:39:32;;;;;;;6.97;5.50;;;17.80;95.20;;;;;;5113719;28;20496;-73
2021/10/17 12:41:59;;;;;;;8.37;5.93;;;17.80;95.10;;;;;;5113546;28;20440;-73
2021/10/17 12:44:25;;;;;;;8.03;5.13;;;17.80;95.30;;;;;;5113705;28;20440;-74
2021/10/17 12:47:04;;;;;;;6.90;5.20;;;17.90;95.30;;;;;;5107509;28;20412;-72
2021/10/17 12:49:45;;;;;;;6.30;5.70;;;17.90;95.50;;;;;;5113805;28;20491;-73
2021/10/17 12:52:32;;;;;;;8.00;5.77;;;17.90;95.60;;;;;;5113764;28;20786;-72
2021/10/17 12:55:01;;;;;;;7.70;5.50;;;17.90;95.60;;;;;;5113382;28;20476;-73